Alma, Alabama
Current Conditions -  °F | °C
As of 2:53 PM on Thursday 18 Dec 2014 (Local Time) from KGZH Reporting Station
Few Clouds Few Clouds  
Wind Chill: 64°   Ceiling: Unl
Heat Index: 64°   Visibility: 10mi
Dew Point: 31°   Wind: 3mph
Humidity: 29%   Direction: NA
Pressure: 30.12"   Gusts: NA
Location:  31.46°N, 87.75°W
Report Text: KGZH 182053Z AUTO VRB03KT 10SM FEW120 18/M01 A3012 RMK AO2 SLP199 T01781006 56017
Loading
Personal Weather Stations






























Interactive Weather Map New forecast layout! Learn more

10-Day Weather Forecast

Advertisements
Track Severe Weather on mobile